Time;durP1;ratioP1;P1;durP2;ratioP2;P2;SDS_P1;SDS_P2;PMS_P1;PMS_P2;Temp;Humidity;BMP_temperature;BMP_pressure;BME280_temperature;BME280_humidity;BME280_pressure;Samples;Min_cycle;Max_cycle;Signal;HPM_P1;HPM_P2
2023/11/26 00:01:53;;;;;;;7.30;4.00;;;;;;;1.72;100.00;99210.08;175874;1269;46133;-87
2023/11/26 00:11:33;;;;;;;6.10;5.10;;;;;;;1.81;100.00;99227.71;176119;1267;58056;-88
2023/11/26 00:21:51;;;;;;;6.50;4.30;;;;;;;1.67;100.00;99239.92;176170;1267;46093;-87
2023/11/26 00:25:54;;;;;;;6.60;4.70;;;;;;;1.68;100.00;99243.84;177089;1267;46175;-87
2023/11/26 00:30:03;;;;;;;7.70;4.60;;;;;;;1.64;100.00;99255.14;176493;1270;46052;-87
2023/11/26 00:34:07;;;;;;;7.60;4.90;;;;;;;1.66;100.00;99256.39;176201;1270;59234;-87
2023/11/26 00:38:09;;;;;;;6.10;3.70;;;;;;;1.70;100.00;99259.82;175972;1267;47557;-87
2023/11/26 00:43:02;;;;;;;7.50;4.50;;;;;;;1.67;100.00;99263.18;175788;1270;46148;-87
2023/11/26 00:47:04;;;;;;;7.30;6.10;;;;;;;1.68;100.00;99264.86;175828;1267;46235;-87
2023/11/26 00:51:06;;;;;;;6.30;4.60;;;;;;;1.67;100.00;99269.29;175937;1267;46058;-87
2023/11/26 00:55:36;;;;;;;7.80;3.70;;;;;;;1.58;100.00;99278.56;175900;1268;57949;-87
2023/11/26 00:59:38;;;;;;;5.70;4.40;;;;;;;1.52;100.00;99280.15;176070;1267;46109;-86
2023/11/26 01:03:42;;;;;;;8.00;4.40;;;;;;;1.44;100.00;99285.14;176068;1267;46012;-87
2023/11/26 01:07:44;;;;;;;11.60;6.50;;;;;;;1.42;100.00;99285.27;175792;1267;46014;-87
2023/11/26 01:11:47;;;;;;;5.80;4.80;;;;;;;1.43;100.00;99287.84;175921;1268;46080;-87
2023/11/26 01:15:49;;;;;;;11.30;6.20;;;;;;;1.49;100.00;99293.23;175896;1269;58203;-86
2023/11/26 01:20:20;;;;;;;8.20;5.50;;;;;;;1.52;100.00;99298.86;176196;1267;46016;-86
2023/11/26 01:24:22;;;;;;;5.70;4.80;;;;;;;1.49;100.00;99298.86;176102;1267;46221;-86
2023/11/26 01:28:25;;;;;;;8.30;5.30;;;;;;;1.54;100.00;99300.45;176212;1267;46078;-88
2023/11/26 01:32:28;;;;;;;7.00;4.30;;;;;;;1.58;100.00;99299.89;176039;1270;46114;-87
2023/11/26 01:36:30;;;;;;;6.30;5.70;;;;;;;1.56;100.00;99304.89;176523;1266;58266;-87
2023/11/26 01:40:37;;;;;;;7.50;4.90;;;;;;;1.54;100.00;99308.48;175971;1267;46043;-88
2023/11/26 01:44:40;;;;;;;7.10;5.00;;;;;;;1.59;100.00;99312.71;175593;1267;46130;-87
2023/11/26 01:48:42;;;;;;;4.70;3.50;;;;;;;1.64;100.00;99317.20;175873;1265;46052;-86
2023/11/26 01:52:46;;;;;;;9.40;3.70;;;;;;;1.57;100.00;99321.79;175568;1267;46127;-86
2023/11/26 01:56:48;;;;;;;7.30;4.50;;;;;;;1.61;100.00;99326.28;175677;1270;59245;-86
2023/11/26 02:01:13;;;;;;;8.10;4.10;;;;;;;1.66;100.00;99329.30;175809;1265;46586;-87
2023/11/26 02:05:17;;;;;;;3.20;2.90;;;;;;;1.62;100.00;99346.15;175805;1267;46116;-86
2023/11/26 02:09:25;;;;;;;6.10;4.00;;;;;;;1.48;100.00;99354.14;175574;1267;46151;-87
2023/11/26 02:13:29;;;;;;;3.70;2.20;;;;;;;1.27;100.00;99354.48;175726;1267;45975;-87
2023/11/26 02:17:37;;;;;;;2.20;1.40;;;;;;;1.13;100.00;99361.19;175597;1266;59938;-86
2023/11/26 02:21:39;;;;;;;6.40;1.40;;;;;;;1.07;100.00;99364.17;175825;1267;46105;-86
2023/11/26 02:25:51;;;;;;;2.10;1.30;;;;;;;0.92;100.00;99367.06;175675;1267;46007;-86
2023/11/26 02:29:53;;;;;;;3.20;2.50;;;;;;;0.88;100.00;99375.70;176049;1267;46124;-86
2023/11/26 02:34:38;;;;;;;3.00;2.40;;;;;;;0.78;100.00;99376.95;175929;1267;47904;-85
2023/11/26 02:38:40;;;;;;;3.60;2.60;;;;;;;0.71;100.00;99377.69;176013;1270;58147;-86
2023/11/26 02:42:44;;;;;;;4.50;3.80;;;;;;;0.71;100.00;99380.12;175750;1267;46111;-85
2023/11/26 02:46:47;;;;;;;7.10;3.60;;;;;;;0.76;100.00;99387.34;175564;1267;46007;-86
2023/11/26 02:50:58;;;;;;;3.40;2.50;;;;;;;0.72;100.00;99396.46;175518;1266;46137;-86
2023/11/26 02:55:00;;;;;;;2.90;2.60;;;;;;;0.72;100.00;99398.42;175796;1267;46040;-86
2023/11/26 02:59:07;;;;;;;3.90;2.50;;;;;;;0.69;100.00;99396.83;175796;1265;59667;-86
2023/11/26 03:03:12;;;;;;;5.30;4.10;;;;;;;0.74;100.00;99399.48;175735;1267;45924;-86
2023/11/26 03:07:27;;;;;;;12.20;4.20;;;;;;;0.75;100.00;99402.77;175701;1267;46477;-86
2023/11/26 03:16:15;;;;;;;7.10;4.40;;;;;;;0.69;100.00;99402.21;175789;1267;46026;-86
2023/11/26 03:20:19;;;;;;;7.30;5.70;;;;;;;0.73;100.00;99408.13;175783;1267;58105;-86
2023/11/26 03:24:21;;;;;;;4.10;3.00;;;;;;;0.68;100.00;99412.39;175933;1268;46138;-86
2023/11/26 03:28:49;;;;;;;5.50;4.50;;;;;;;0.74;100.00;99414.52;175654;1268;46120;-86
2023/11/26 03:32:57;;;;;;;6.20;3.90;;;;;;;0.77;100.00;99419.56;175820;1267;46144;-86
2023/11/26 03:36:59;;;;;;;4.40;2.60;;;;;;;0.76;100.00;99428.38;176165;1267;45997;-86
2023/11/26 03:41:05;;;;;;;5.70;2.90;;;;;;;0.70;100.00;99436.20;175982;1267;58252;-86
2023/11/26 03:45:07;;;;;;;6.70;4.00;;;;;;;0.59;100.00;99446.02;175894;1267;46058;-86
2023/11/26 03:49:09;;;;;;;3.30;3.00;;;;;;;0.64;100.00;99453.61;175704;1270;46297;-86
2023/11/26 03:53:14;;;;;;;6.10;4.10;;;;;;;0.62;100.00;99455.45;175562;1266;46573;-86
2023/11/26 03:57:17;;;;;;;5.10;3.70;;;;;;;0.57;100.00;99455.36;175733;1267;46093;-86
2023/11/26 04:07:15;;;;;;;3.80;2.40;;;;;;;0.51;100.00;99472.63;175698;1268;46114;-86
2023/11/26 04:17:09;;;;;;;5.70;2.70;;;;;;;0.53;100.00;99485.63;176476;1267;45958;-87
2023/11/26 04:21:12;;;;;;;11.40;4.20;;;;;;;0.51;100.00;99490.80;176633;1267;45915;-86
2023/11/26 04:25:14;;;;;;;5.70;2.80;;;;;;;0.50;100.00;99495.17;176337;1268;60044;-86
2023/11/26 04:29:16;;;;;;;4.90;2.60;;;;;;;0.42;100.00;99506.41;176037;1267;46035;-86
2023/11/26 04:33:19;;;;;;;4.70;1.70;;;;;;;0.40;100.00;99517.19;175853;1268;46119;-87
2023/11/26 04:37:46;;;;;;;2.80;2.50;;;;;;;0.41;100.00;99518.48;175972;1269;46059;-87
2023/11/26 04:41:52;;;;;;;7.90;3.50;;;;;;;0.41;100.00;99522.49;175694;1267;46116;-86
2023/11/26 04:46:20;;;;;;;7.30;3.00;;;;;;;0.50;100.00;99532.17;175589;1268;59366;-86
2023/11/26 04:50:22;;;;;;;4.10;2.60;;;;;;;0.48;100.00;99532.26;175863;1266;46218;-86
2023/11/26 04:54:28;;;;;;;4.90;2.40;;;;;;;0.45;100.00;99541.48;175885;1267;46571;-86
2023/11/26 04:58:31;;;;;;;3.70;3.40;;;;;;;0.46;100.00;99549.30;175996;1267;46145;-85
2023/11/26 05:02:41;;;;;;;7.00;3.50;;;;;;;0.49;100.00;99551.44;175754;1267;46000;-86
2023/11/26 05:06:44;;;;;;;5.50;2.80;;;;;;;0.41;100.00;99558.99;175705;1267;59632;-87
2023/11/26 05:11:43;;;;;;;5.80;3.60;;;;;;;0.36;100.00;99566.89;175804;1267;46094;-86
2023/11/26 05:15:45;;;;;;;4.30;3.20;;;;;;;0.33;100.00;99572.13;175835;1267;46083;-86
2023/11/26 05:20:22;;;;;;;5.60;3.30;;;;;;;0.32;100.00;99570.91;175623;1267;46137;-87
2023/11/26 05:24:24;;;;;;;6.30;4.20;;;;;;;0.31;100.00;99580.77;175726;1267;46026;-87
2023/11/26 05:28:30;;;;;;;5.10;3.40;;;;;;;0.31;100.00;99583.39;176218;1266;59498;-87
2023/11/26 05:32:32;;;;;;;3.40;3.00;;;;;;;0.32;100.00;99590.30;175677;1266;46186;-86
2023/11/26 05:36:38;;;;;;;7.40;3.40;;;;;;;0.27;100.00;99591.23;175936;1266;46114;-86
2023/11/26 05:40:40;;;;;;;3.70;2.40;;;;;;;0.28;100.00;99598.68;175736;1268;46254;-86
2023/11/26 05:44:44;;;;;;;2.80;2.40;;;;;;;0.26;100.00;99602.09;175637;1267;46014;-87
2023/11/26 05:48:46;;;;;;;8.70;4.00;;;;;;;0.20;100.00;99605.21;175928;1265;59052;-86
2023/11/26 05:52:51;;;;;;;5.50;3.30;;;;;;;0.22;100.00;99609.27;175885;1267;46221;-86
2023/11/26 05:56:53;;;;;;;3.30;3.00;;;;;;;0.13;100.00;99612.84;175824;1268;46173;-87
2023/11/26 06:07:16;;;;;;;4.60;3.60;;;;;;;0.15;100.00;99618.33;175843;1267;45953;-87
2023/11/26 06:11:18;;;;;;;4.90;2.50;;;;;;;0.14;100.00;99623.61;175858;1267;58290;-87
2023/11/26 06:20:55;;;;;;;2.30;1.80;;;;;;;0.10;100.00;99630.27;175935;1267;46111;-87
2023/11/26 06:31:08;;;;;;;4.10;2.50;;;;;;;0.12;100.00;99631.41;176018;1266;46076;-87
2023/11/26 06:35:12;;;;;;;4.00;2.90;;;;;;;0.11;100.00;99633.55;175755;1267;59578;-87
2023/11/26 06:39:14;;;;;;;5.00;3.20;;;;;;;0.10;100.00;99642.47;176055;1266;46072;-87
2023/11/26 06:43:18;;;;;;;3.10;2.80;;;;;;;0.14;100.00;99643.83;176254;1267;46168;-87
2023/11/26 06:53:05;;;;;;;3.30;2.60;;;;;;;0.23;100.00;99660.69;175682;1268;44655;-87
2023/11/26 07:03:01;;;;;;;4.10;2.30;;;;;;;0.32;100.00;99676.96;176283;1265;46105;-87
2023/11/26 07:07:03;;;;;;;3.50;1.90;;;;;;;0.31;100.00;99682.10;175696;1269;46111;-87
2023/11/26 07:11:05;;;;;;;4.20;2.60;;;;;;;0.34;100.00;99687.02;175789;1270;46263;-86
2023/11/26 07:15:33;;;;;;;4.20;3.00;;;;;;;0.39;100.00;99692.20;175824;1268;46359;-86
2023/11/26 07:19:40;;;;;;;3.70;3.30;;;;;;;0.40;100.00;99699.95;175924;1267;58135;-86
2023/11/26 07:23:42;;;;;;;5.30;3.70;;;;;;;0.38;100.00;99701.48;175915;1269;46452;-86
2023/11/26 07:27:57;;;;;;;4.30;2.00;;;;;;;0.35;100.00;99705.95;176136;1267;46026;-87
2023/11/26 07:31:59;;;;;;;2.90;2.60;;;;;;;0.22;100.00;99712.89;175623;1266;46147;-86
2023/11/26 07:41:46;;;;;;;4.70;2.20;;;;;;;0.17;100.00;99719.73;176247;1266;58092;-86
2023/11/26 07:45:51;;;;;;;6.10;4.30;;;;;;;0.18;100.00;99731.73;175819;1267;46461;-85
2023/11/26 07:55:36;;;;;;;4.20;1.90;;;;;;;0.27;100.00;99740.58;176330;1266;46120;-86
2023/11/26 08:00:11;;;;;;;3.50;2.30;;;;;;;0.18;100.00;99744.79;176035;1267;46119;-86
2023/11/26 08:04:17;;;;;;;2.90;2.60;;;;;;;0.24;100.00;99745.21;176000;1270;59297;-87
2023/11/26 08:08:22;;;;;;;1.40;1.30;;;;;;;0.28;100.00;99757.26;175975;1267;46235;-87
2023/11/26 08:12:28;;;;;;;4.00;2.30;;;;;;;0.27;100.00;99760.29;176491;1269;46026;-86
2023/11/26 08:16:57;;;;;;;3.30;1.80;;;;;;;0.32;100.00;99766.81;176361;1267;46162;-86
2023/11/26 08:21:03;;;;;;;3.00;2.60;;;;;;;0.28;100.00;99774.34;175705;1267;46049;-86
2023/11/26 08:25:11;;;;;;;3.60;2.40;;;;;;;0.38;100.00;99776.64;175761;1268;59577;-87
2023/11/26 08:29:16;;;;;;;6.50;3.80;;;;;;;0.42;100.00;99782.57;175965;1270;46123;-87
2023/11/26 08:33:22;;;;;;;2.80;2.30;;;;;;;0.41;100.00;99786.08;175762;1268;46138;-87
2023/11/26 08:37:24;;;;;;;6.10;2.40;;;;;;;0.44;100.00;99782.65;175480;1266;46105;-87
2023/11/26 08:42:34;;;;;;;7.20;2.00;;;;;;;0.35;100.00;99785.85;175506;1270;46098;-87
2023/11/26 08:46:37;;;;;;;4.20;2.20;;;;;;;0.48;100.00;99788.91;176175;1267;59652;-87
2023/11/26 08:50:39;;;;;;;5.10;2.70;;;;;;;0.51;100.00;99796.64;175737;1267;46101;-86
2023/11/26 08:54:42;;;;;;;4.80;2.20;;;;;;;0.45;100.00;99804.95;175693;1267;46183;-86
2023/11/26 08:58:44;;;;;;;4.00;1.50;;;;;;;0.49;100.00;99810.69;175629;1266;46104;-86
2023/11/26 09:02:47;;;;;;;3.30;2.50;;;;;;;0.48;100.00;99815.63;175599;1267;46120;-86
2023/11/26 09:06:50;;;;;;;3.10;2.60;;;;;;;0.53;100.00;99821.84;175595;1270;59439;-87
2023/11/26 09:11:18;;;;;;;4.80;2.90;;;;;;;0.62;100.00;99825.05;175794;1267;46130;-86
2023/11/26 09:15:25;;;;;;;8.60;4.20;;;;;;;0.57;100.00;99824.77;175565;1267;46152;-86
2023/11/26 09:19:28;;;;;;;5.30;3.10;;;;;;;0.48;100.00;99832.02;175725;1268;46131;-87
2023/11/26 09:23:32;;;;;;;3.80;2.80;;;;;;;0.47;100.00;99833.30;175541;1268;46152;-86
2023/11/26 09:32:59;;;;;;;4.60;2.50;;;;;;;0.83;100.00;99830.02;175750;1269;46134;-86
2023/11/26 09:37:04;;;;;;;5.40;3.30;;;;;;;0.87;100.00;99834.54;176046;1267;46004;-85
2023/11/26 09:41:09;;;;;;;;;;;;;;;0.78;100.00;99833.58;179631;1268;43691;-86
2023/11/26 09:45:12;;;;;;;20.40;10.30;;;;;;;0.83;100.00;99833.32;176178;1265;45790;-85
2023/11/26 09:49:14;;;;;;;5.60;2.80;;;;;;;0.87;100.00;99825.79;175878;1267;58098;-87
2023/11/26 09:53:20;;;;;;;3.70;2.60;;;;;;;0.85;100.00;99830.77;175705;1268;46465;-87
2023/11/26 09:57:22;;;;;;;11.40;3.50;;;;;;;0.80;100.00;99830.48;175874;1268;46105;-86
2023/11/26 10:02:09;;;;;;;6.20;2.80;;;;;;;0.69;100.00;99821.23;175932;1267;46056;-87
2023/11/26 10:06:12;;;;;;;6.00;4.80;;;;;;;0.68;100.00;99819.73;176252;1269;46133;-85
2023/11/26 10:10:14;;;;;;;4.70;4.10;;;;;;;0.64;100.00;99822.36;176106;1265;58248;-87
2023/11/26 10:25:15;;;;;;;6.30;3.30;;;;;;;0.62;100.00;99816.85;175587;1267;46082;-87
2023/11/26 10:29:20;;;;;;;8.10;4.50;;;;;;;0.66;100.00;99822.78;176014;1267;46123;-86
2023/11/26 10:33:29;;;;;;;4.70;3.00;;;;;;;0.69;100.00;99825.63;175839;1270;58241;-87
2023/11/26 10:37:31;;;;;;;4.90;2.70;;;;;;;0.48;100.00;99821.20;175742;1268;46137;-85
2023/11/26 10:41:35;;;;;;;5.00;3.30;;;;;;;0.52;100.00;99826.44;175842;1266;46085;-84
2023/11/26 10:51:25;;;;;;;4.10;3.50;;;;;;;0.61;100.00;99825.65;176011;1267;46220;-86
2023/11/26 11:00:24;;;;;;;4.90;3.00;;;;;;;0.81;100.00;99816.10;176500;1268;46037;-86
2023/11/26 11:04:26;;;;;;;3.70;3.10;;;;;;;1.01;100.00;99809.24;176311;1268;45985;-85
2023/11/26 11:08:56;;;;;;;8.10;4.60;;;;;;;1.03;99.90;99806.72;175940;1267;46094;-85
2023/11/26 11:13:09;;;;;;;7.60;3.40;;;;;;;1.13;98.83;99803.39;175754;1266;46001;-84
2023/11/26 11:17:38;;;;;;;7.60;3.50;;;;;;;1.27;96.75;99795.02;175594;1268;59461;-85
2023/11/26 11:21:47;;;;;;;3.40;2.60;;;;;;;1.35;91.15;99799.66;180074;1265;90886;-61
2023/11/26 11:25:56;;;;;;;3.60;3.20;;;;;;;1.50;89.75;99802.91;175627;1267;46276;-87
2023/11/26 11:30:00;;;;;;;12.20;5.20;;;;;;;1.56;90.00;99799.65;175699;1266;46087;-86
2023/11/26 11:34:02;;;;;;;4.80;3.10;;;;;;;1.53;89.00;99801.95;175945;1267;45936;-86
2023/11/26 11:38:17;;;;;;;4.70;2.30;;;;;;;1.51;88.84;99803.36;175980;1266;59657;-86
2023/11/26 11:42:27;;;;;;;3.30;2.40;;;;;;;1.44;87.22;99810.60;175660;1267;46111;-86
2023/11/26 11:46:57;;;;;;;4.90;2.40;;;;;;;1.36;85.11;99812.92;175675;1268;46202;-86
2023/11/26 11:51:42;;;;;;;17.70;11.70;;;;;;;1.45;85.16;99808.77;176509;1268;46039;-87
2023/11/26 11:56:09;;;;;;;9.40;7.70;;;;;;;1.53;83.59;99815.00;178420;1267;45976;-86
2023/11/26 12:00:14;;;;;;;7.20;4.20;;;;;;;1.41;81.84;99815.08;176227;1267;58114;-87
2023/11/26 12:04:16;;;;;;;19.50;8.90;;;;;;;1.23;81.90;99814.79;175922;1270;46010;-86
2023/11/26 12:08:18;;;;;;;4.10;2.20;;;;;;;1.17;79.48;99816.14;175967;1267;46052;-86
2023/11/26 12:12:20;;;;;;;9.10;3.90;;;;;;;1.19;79.52;99808.00;175601;1267;46124;-86
2023/11/26 12:16:24;;;;;;;5.90;3.00;;;;;;;1.25;77.89;99809.94;175758;1270;46113;-86
2023/11/26 12:20:30;;;;;;;9.40;2.90;;;;;;;1.38;78.01;99807.93;175787;1268;59320;-86
2023/11/26 12:24:33;;;;;;;;;;;;;;;1.61;79.01;99807.27;175466;1268;46033;-86
2023/11/26 12:28:46;;;;;;;5.10;1.20;;;;;;;1.68;78.30;99799.20;175698;1270;45923;-86
2023/11/26 12:32:49;;;;;;;0.90;0.80;;;;;;;1.43;77.30;99803.66;175577;1267;45968;-86
2023/11/26 12:36:51;;;;;;;3.80;1.90;;;;;;;1.20;79.04;99804.95;175786;1267;46188;-86
2023/11/26 12:40:57;;;;;;;7.00;4.50;;;;;;;1.11;79.17;99804.03;175674;1268;57144;-85
2023/11/26 12:45:08;;;;;;;5.80;2.40;;;;;;;1.10;77.67;99802.49;175628;1267;46042;-86
2023/11/26 12:49:14;;;;;;;3.10;2.50;;;;;;;1.04;79.89;99800.34;175859;1270;46233;-85
2023/11/26 12:53:17;;;;;;;7.90;2.50;;;;;;;0.94;80.46;99798.75;175399;1266;46051;-86
2023/11/26 12:57:20;;;;;;;7.70;2.80;;;;;;;0.93;80.27;99798.08;175421;1268;46141;-86
2023/11/26 13:01:24;;;;;;;5.10;1.70;;;;;;;0.96;80.80;99803.16;175911;1266;58106;-87
2023/11/26 13:05:28;;;;;;;3.40;1.90;;;;;;;0.99;80.52;99807.96;175600;1267;45980;-86
2023/11/26 13:09:46;;;;;;;3.30;2.80;;;;;;;1.02;81.11;99809.52;175765;1268;46110;-87
2023/11/26 13:13:49;;;;;;;3.60;2.80;;;;;;;1.00;80.49;99811.03;175761;1266;46581;-86
2023/11/26 13:18:18;;;;;;;2.60;1.90;;;;;;;1.04;81.65;99818.36;175663;1267;46148;-87
2023/11/26 13:22:22;;;;;;;12.40;4.40;;;;;;;1.09;80.90;99824.04;176610;1267;59559;-86
2023/11/26 13:26:50;;;;;;;41.60;17.00;;;;;;;1.10;80.31;99820.10;175912;1267;46334;-86
2023/11/26 13:30:53;;;;;;;27.50;13.70;;;;;;;1.10;77.74;99833.98;175902;1268;46026;-86
2023/11/26 13:34:56;;;;;;;10.30;5.00;;;;;;;1.07;78.21;99832.16;175712;1270;47396;-86
2023/11/26 13:39:01;;;;;;;24.40;10.40;;;;;;;1.02;77.43;99834.52;175984;1267;46139;-86
2023/11/26 13:43:16;;;;;;;15.30;8.70;;;;;;;1.09;79.11;99830.15;175892;1267;59503;-86
2023/11/26 13:47:18;;;;;;;19.20;7.10;;;;;;;1.11;78.55;99832.69;175583;1266;46060;-87
2023/11/26 13:51:24;;;;;;;53.70;32.50;;;;;;;1.05;76.30;99830.36;176154;1267;46027;-87
2023/11/26 13:55:26;;;;;;;22.70;13.80;;;;;;;1.03;77.01;99832.70;175947;1267;45927;-86
2023/11/26 13:59:30;;;;;;;12.90;7.80;;;;;;;1.05;77.69;99834.19;175948;1267;46286;-86
2023/11/26 14:03:32;;;;;;;12.80;6.30;;;;;;;1.00;77.30;99838.98;175939;1267;59942;-86
2023/11/26 14:07:40;;;;;;;4.50;3.50;;;;;;;0.94;76.91;99845.02;176321;1267;46065;-86
2023/11/26 14:11:42;;;;;;;3.80;2.90;;;;;;;0.88;78.31;99840.06;176012;1267;46103;-86
2023/11/26 14:21:27;;;;;;;6.90;4.90;;;;;;;0.63;85.81;99844.04;176038;1266;46096;-86
2023/11/26 14:30:06;;;;;;;3.40;2.50;;;;;;;0.63;89.42;99858.20;180905;1268;43767;-59
2023/11/26 14:34:16;;;;;;;10.20;5.50;;;;;;;0.74;89.93;99862.73;180896;1268;43798;-59
2023/11/26 14:38:17;;;;;;;9.80;5.50;;;;;;;0.89;90.88;99866.73;180926;1268;43379;-59
2023/11/26 14:42:21;;;;;;;8.50;4.60;;;;;;;0.99;92.07;99862.42;180884;1269;43804;-59
2023/11/26 14:46:48;;;;;;;9.80;4.20;;;;;;;1.08;92.69;99853.27;180861;1269;58819;-59
2023/11/26 14:50:50;;;;;;;;;;;;;;;1.13;93.03;99845.66;180914;1269;43019;-59
2023/11/26 14:54:51;;;;;;;7.30;5.60;;;;;;;1.16;93.74;99846.39;180868;1269;43408;-59
2023/11/26 14:58:54;;;;;;;5.60;4.10;;;;;;;1.18;94.15;99842.09;180896;1270;43099;-60
2023/11/26 15:02:56;;;;;;;7.30;4.90;;;;;;;1.14;93.90;99835.30;180857;1270;43044;-59
2023/11/26 15:06:58;;;;;;;7.60;4.30;;;;;;;1.16;94.34;99833.30;180878;1268;58103;-59
2023/11/26 15:11:01;;;;;;;8.40;5.50;;;;;;;1.16;94.81;99829.98;180858;1268;43098;-59
2023/11/26 15:15:03;;;;;;;10.40;5.80;;;;;;;1.15;95.66;99833.89;180899;1268;43035;-59
2023/11/26 15:19:36;;;;;;;6.60;5.90;;;;;;;1.14;96.53;99833.01;180933;1268;43531;-59
2023/11/26 15:23:37;;;;;;;8.00;5.70;;;;;;;1.15;97.69;99829.48;180936;1268;44075;-59
2023/11/26 15:27:40;;;;;;;6.20;5.60;;;;;;;1.12;98.81;99830.34;180947;1268;58690;-59
2023/11/26 15:31:42;;;;;;;8.70;4.90;;;;;;;1.08;99.01;99826.17;180939;1268;43164;-59
2023/11/26 15:35:43;;;;;;;13.50;8.30;;;;;;;1.11;99.33;99822.36;180948;1268;42981;-59
2023/11/26 15:39:45;;;;;;;12.50;7.20;;;;;;;1.15;99.73;99824.09;180941;1268;43702;-59
2023/11/26 15:44:41;;;;;;;10.30;7.10;;;;;;;1.18;99.49;99829.00;180947;1268;43069;-59
2023/11/26 15:48:42;;;;;;;8.20;6.70;;;;;;;1.20;99.38;99828.58;180924;1269;58248;-59
2023/11/26 15:52:44;;;;;;;12.00;7.60;;;;;;;1.15;99.28;99832.46;180901;1268;43449;-59
2023/11/26 15:56:46;;;;;;;13.20;6.70;;;;;;;1.11;99.17;99832.85;180954;1268;43783;-59
2023/11/26 16:00:47;;;;;;;17.80;7.00;;;;;;;1.08;99.32;99837.52;181004;1268;43706;-59
2023/11/26 16:04:51;;;;;;;15.30;9.30;;;;;;;1.10;99.61;99836.05;181012;1268;43851;-59
2023/11/26 16:08:53;;;;;;;9.10;6.20;;;;;;;1.05;99.16;99842.75;181013;1267;57443;-59
2023/11/26 16:12:54;;;;;;;10.40;6.60;;;;;;;1.02;98.99;99847.28;180835;1270;43885;-59
2023/11/26 16:16:56;;;;;;;11.30;6.60;;;;;;;0.99;98.90;99844.58;180895;1268;43986;-59
2023/11/26 16:21:17;;;;;;;9.80;7.20;;;;;;;0.95;98.75;99845.65;180930;1268;43418;-59
2023/11/26 16:25:19;;;;;;;10.40;7.90;;;;;;;0.90;98.66;99846.77;180926;1269;42977;-59
2023/11/26 16:29:31;;;;;;;14.20;8.50;;;;;;;0.80;98.68;99840.11;180860;1268;58679;-59
2023/11/26 16:33:48;;;;;;;12.50;7.30;;;;;;;0.68;98.39;99834.73;180925;1268;43086;-59
2023/11/26 16:37:50;;;;;;;9.60;7.30;;;;;;;0.55;98.55;99835.85;180927;1268;43747;-59
2023/11/26 16:41:55;;;;;;;15.90;7.90;;;;;;;0.41;98.23;99838.96;180952;1268;43124;-59
2023/11/26 16:45:57;;;;;;;17.10;10.60;;;;;;;0.42;99.14;99837.71;180869;1269;43475;-59
2023/11/26 16:49:58;;;;;;;8.20;6.40;;;;;;;0.46;98.96;99833.17;180960;1268;58029;-59
2023/11/26 16:54:00;;;;;;;11.40;6.20;;;;;;;0.48;98.54;99828.02;180836;1269;43955;-59
2023/11/26 16:58:02;;;;;;;9.00;6.90;;;;;;;0.47;98.36;99827.39;180888;1268;43846;-59
2023/11/26 17:02:03;;;;;;;13.70;8.30;;;;;;;0.44;98.40;99829.42;180947;1268;43682;-59
2023/11/26 17:06:07;;;;;;;13.20;7.80;;;;;;;0.40;98.53;99828.71;180923;1268;43678;-59
2023/11/26 17:10:09;;;;;;;9.60;7.00;;;;;;;0.33;99.32;99832.00;180757;1270;58509;-60
2023/11/26 17:14:17;;;;;;;9.70;6.10;;;;;;;0.34;99.72;99831.10;180860;1268;43541;-59
2023/11/26 17:18:19;;;;;;;10.60;7.80;;;;;;;0.35;99.92;99833.66;180951;1268;43671;-60
2023/11/26 17:22:21;;;;;;;8.60;5.80;;;;;;;0.33;100.00;99835.32;180888;1269;43416;-60
2023/11/26 17:26:24;;;;;;;12.50;7.30;;;;;;;0.31;100.00;99828.27;180862;1268;43928;-60
2023/11/26 17:30:26;;;;;;;12.00;7.20;;;;;;;0.34;100.00;99830.55;180805;1269;58195;-60
2023/11/26 17:34:29;;;;;;;12.90;8.60;;;;;;;0.38;100.00;99830.40;180872;1268;43796;-61
2023/11/26 17:38:30;;;;;;;11.80;7.20;;;;;;;0.41;100.00;99836.00;180678;1271;210562;-61
2023/11/26 17:42:35;;;;;;;9.20;6.60;;;;;;;0.45;100.00;99833.59;180830;1268;43675;-61
2023/11/26 17:46:39;;;;;;;11.40;7.20;;;;;;;0.46;100.00;99837.36;180844;1267;43840;-60
2023/11/26 17:55:28;;;;;;;13.80;7.40;;;;;;;0.46;100.00;99838.57;180283;1265;93905;-86
2023/11/26 17:59:31;;;;;;;10.50;6.00;;;;;;;0.48;100.00;99838.13;180282;1265;43794;-85
2023/11/26 18:03:33;;;;;;;11.70;6.40;;;;;;;0.50;99.98;99829.99;180316;1266;44192;-84
2023/11/26 18:07:35;;;;;;;14.50;7.80;;;;;;;0.51;99.84;99827.88;180298;1265;44177;-85
2023/11/26 18:11:37;;;;;;;11.10;7.50;;;;;;;0.51;99.45;99832.93;180327;1265;58029;-85
2023/11/26 18:15:39;;;;;;;12.80;7.80;;;;;;;0.52;99.80;99836.36;180286;1265;44124;-83
2023/11/26 18:19:48;;;;;;;13.80;7.30;;;;;;;0.53;99.33;99836.86;180348;1265;44078;-85
2023/11/26 18:23:51;;;;;;;9.60;7.40;;;;;;;0.51;99.25;99833.96;180380;1265;44189;-83
2023/11/26 18:27:52;;;;;;;14.60;8.50;;;;;;;0.48;98.94;99830.45;180374;1267;44067;-82
2023/11/26 18:31:56;;;;;;;15.40;8.70;;;;;;;0.46;99.18;99829.48;180369;1265;57960;-80
2023/11/26 18:35:58;;;;;;;16.40;8.40;;;;;;;0.46;99.92;99833.88;180236;1265;44225;-81
2023/11/26 18:40:00;;;;;;;14.40;8.20;;;;;;;0.48;100.00;99833.43;180096;1265;44209;-84
2023/11/26 18:44:03;;;;;;;15.20;8.90;;;;;;;0.51;100.00;99828.41;180291;1266;44035;-82
2023/11/26 18:48:07;;;;;;;13.10;8.40;;;;;;;0.51;100.00;99829.28;180389;1265;43794;-87
2023/11/26 18:52:15;;;;;;;12.20;7.50;;;;;;;0.54;100.00;99825.27;180360;1266;58589;-86
2023/11/26 18:56:22;;;;;;;17.20;9.40;;;;;;;0.58;100.00;99828.23;180632;1265;43851;-82
2023/11/26 19:00:40;;;;;;;11.30;9.60;;;;;;;0.62;100.00;99832.22;180400;1265;43729;-82
2023/11/26 19:04:53;;;;;;;14.10;7.50;;;;;;;0.65;100.00;99823.01;180088;1265;44757;-83
2023/11/26 19:09:03;;;;;;;20.80;9.60;;;;;;;0.73;100.00;99822.27;180149;1265;43920;-84
2023/11/26 19:13:10;;;;;;;7.60;6.80;;;;;;;0.77;99.82;99820.67;180283;1265;58335;-83
2023/11/26 19:17:12;;;;;;;18.10;9.00;;;;;;;0.74;99.43;99816.11;180334;1265;44143;-84
2023/11/26 19:21:19;;;;;;;11.90;8.10;;;;;;;0.63;98.72;99820.11;180288;1265;43854;-83
2023/11/26 19:25:21;;;;;;;;;;;;;;;0.55;98.78;99819.67;180351;1265;44265;-83
2023/11/26 19:29:24;;;;;;;12.30;8.50;;;;;;;0.45;98.62;99820.45;180380;1267;43673;-83
2023/11/26 19:33:26;;;;;;;16.10;8.80;;;;;;;0.37;99.04;99819.23;180331;1266;59586;-83
2023/11/26 19:37:28;;;;;;;17.60;9.70;;;;;;;0.33;99.27;99819.25;180376;1265;43824;-82
2023/11/26 19:41:30;;;;;;;13.10;9.30;;;;;;;0.34;99.43;99816.61;180247;1267;43781;-82
2023/11/26 19:45:33;;;;;;;13.90;9.80;;;;;;;0.33;99.50;99815.41;180169;1265;44186;-81
2023/11/26 19:49:35;;;;;;;19.70;11.40;;;;;;;0.33;100.00;99804.12;180268;1265;44096;-82
2023/11/26 19:53:38;;;;;;;12.20;9.70;;;;;;;0.37;100.00;99805.52;180344;1264;89630;-61
2023/11/26 19:57:43;;;;;;;9.20;6.90;;;;;;;0.38;100.00;99802.13;181009;1266;43188;-60
2023/11/26 20:01:47;;;;;;;17.40;9.10;;;;;;;0.43;100.00;99797.88;181023;1267;42992;-61
2023/11/26 20:05:49;;;;;;;13.50;8.70;;;;;;;0.47;100.00;99792.13;180962;1268;43652;-63
2023/11/26 20:09:51;;;;;;;16.00;9.40;;;;;;;0.46;100.00;99790.58;181083;1266;43727;-62
2023/11/26 20:13:54;;;;;;;16.90;11.00;;;;;;;0.48;100.00;99786.14;180883;1267;58061;-61
2023/11/26 20:17:56;;;;;;;19.70;13.00;;;;;;;0.50;100.00;99781.51;181042;1267;43703;-61
2023/11/26 20:21:57;;;;;;;17.00;10.80;;;;;;;0.51;100.00;99784.76;181083;1265;43408;-61
2023/11/26 20:25:59;;;;;;;18.00;11.60;;;;;;;0.60;99.93;99779.25;181007;1265;43614;-61
2023/11/26 20:30:01;;;;;;;20.40;12.60;;;;;;;0.63;98.55;99779.48;181040;1266;43108;-62
2023/11/26 20:34:05;;;;;;;19.90;12.20;;;;;;;0.61;97.81;99776.61;180961;1266;59549;-62
2023/11/26 20:38:09;;;;;;;;;;;;;;;0.57;98.13;99767.21;180999;1266;43167;-62
2023/11/26 20:42:11;;;;;;;27.30;15.80;;;;;;;0.59;98.81;99770.98;181041;1267;43482;-62
2023/11/26 20:46:20;;;;;;;27.80;14.10;;;;;;;0.66;99.23;99773.55;180989;1265;43445;-63
2023/11/26 20:50:22;;;;;;;23.10;15.10;;;;;;;0.76;99.45;99764.71;181027;1265;43731;-62
2023/11/26 20:54:25;;;;;;;17.10;10.80;;;;;;;0.87;100.00;99762.98;180972;1265;59399;-62
2023/11/26 20:58:26;;;;;;;16.60;12.40;;;;;;;1.01;100.00;99763.31;180988;1269;43733;-62
2023/11/26 21:02:29;;;;;;;22.00;14.90;;;;;;;1.15;100.00;99760.52;180984;1265;43459;-62